createdAt,value
2018-09-13T00:02:04.985Z,12.24
2018-09-13T00:04:33.163Z,12.23
2018-09-13T00:07:01.297Z,12.09
2018-09-13T00:09:29.436Z,12.04
2018-09-13T00:11:57.596Z,12.01
2018-09-13T00:14:25.771Z,11.93
2018-09-13T00:16:53.888Z,11.92
2018-09-13T00:19:22.019Z,11.96
2018-09-13T00:21:50.115Z,12.01
2018-09-13T00:24:18.195Z,12.03
2018-09-13T00:26:46.775Z,11.98
2018-09-13T00:29:14.872Z,12.04
2018-09-13T00:31:43.090Z,12.05
2018-09-13T00:34:11.323Z,12.05
2018-09-13T00:36:39.424Z,12.05
2018-09-13T00:39:08.243Z,12.00
2018-09-13T00:41:36.460Z,11.99
2018-09-13T00:44:04.673Z,11.88
2018-09-13T00:46:33.014Z,11.85
2018-09-13T00:49:01.099Z,11.83
2018-09-13T00:51:29.177Z,11.78
2018-09-13T00:53:57.411Z,11.81
2018-09-13T00:56:25.501Z,11.79
2018-09-13T00:58:53.679Z,11.80
2018-09-13T01:01:21.854Z,11.87
2018-09-13T01:03:49.963Z,11.90
2018-09-13T01:06:18.057Z,11.91
2018-09-13T01:08:46.196Z,11.92
2018-09-13T01:11:14.255Z,11.83
2018-09-13T01:13:43.527Z,11.86
2018-09-13T01:16:11.630Z,11.89
2018-09-13T01:18:39.772Z,11.88
2018-09-13T01:21:07.922Z,11.86
2018-09-13T01:23:36.059Z,11.94
2018-09-13T01:26:04.363Z,11.96
2018-09-13T01:28:32.495Z,11.94
2018-09-13T01:31:00.593Z,11.94
2018-09-13T01:33:28.713Z,12.00
2018-09-13T01:35:56.823Z,12.00
2018-09-13T01:38:24.915Z,12.04
2018-09-13T01:40:52.990Z,11.93
2018-09-13T01:43:21.081Z,11.77
2018-09-13T01:45:49.168Z,11.69
2018-09-13T01:48:17.257Z,11.63
2018-09-13T01:50:45.385Z,11.52
2018-09-13T01:53:13.497Z,11.50
2018-09-13T01:55:41.616Z,11.48
2018-09-13T01:58:09.780Z,11.52
2018-09-13T02:00:37.858Z,11.46
2018-09-13T02:03:06.009Z,11.42
2018-09-13T02:05:34.086Z,11.60
2018-09-13T02:08:02.191Z,11.65
2018-09-13T02:10:30.290Z,11.65
2018-09-13T02:12:58.447Z,11.63
2018-09-13T02:15:26.563Z,11.52
2018-09-13T02:17:54.662Z,11.51
2018-09-13T02:20:22.739Z,11.50
2018-09-13T02:22:50.878Z,11.47
2018-09-13T02:25:18.975Z,11.51
2018-09-13T02:27:47.055Z,11.49
2018-09-13T02:30:15.191Z,11.33
2018-09-13T02:32:43.303Z,11.35
2018-09-13T02:35:11.421Z,11.35
2018-09-13T02:37:39.536Z,11.30
2018-09-13T02:40:07.661Z,11.24
2018-09-13T02:42:35.812Z,11.16
2018-09-13T02:45:03.946Z,11.12
2018-09-13T02:47:32.096Z,11.17
2018-09-13T02:50:00.208Z,11.26
2018-09-13T02:52:28.376Z,11.27
2018-09-13T02:54:56.489Z,11.30
2018-09-13T02:57:24.582Z,11.28
2018-09-13T02:59:52.716Z,11.21
2018-09-13T03:02:20.864Z,11.12
2018-09-13T03:04:49.005Z,11.09
2018-09-13T03:07:17.103Z,11.14
2018-09-13T03:09:45.215Z,11.21
2018-09-13T03:12:13.341Z,11.33
2018-09-13T03:14:41.463Z,11.45
2018-09-13T03:17:09.557Z,11.48
2018-09-13T03:19:37.664Z,11.45
2018-09-13T03:22:05.756Z,11.46
2018-09-13T03:24:33.898Z,11.35
2018-09-13T03:27:02.025Z,11.45
2018-09-13T03:29:30.191Z,11.56
2018-09-13T03:31:58.319Z,11.54
2018-09-13T03:34:26.466Z,11.58
2018-09-13T03:36:54.577Z,11.68
2018-09-13T03:39:22.669Z,11.72
2018-09-13T03:41:50.833Z,11.65
2018-09-13T03:44:18.915Z,11.69
2018-09-13T03:46:46.979Z,11.77
2018-09-13T03:49:15.065Z,11.86
2018-09-13T03:51:43.177Z,11.83
2018-09-13T03:54:11.336Z,11.76
2018-09-13T03:56:39.458Z,11.56
2018-09-13T03:59:07.647Z,11.54
2018-09-13T04:01:35.743Z,11.50
2018-09-13T04:04:03.876Z,11.42
2018-09-13T04:06:31.978Z,11.43
2018-09-13T04:09:00.099Z,11.40
2018-09-13T04:11:28.220Z,11.37
2018-09-13T04:13:56.342Z,11.34
2018-09-13T04:16:24.467Z,11.28
2018-09-13T04:18:52.640Z,11.13
2018-09-13T04:21:20.724Z,11.05
2018-09-13T04:23:48.840Z,11.02
2018-09-13T04:26:16.955Z,10.98
2018-09-13T04:28:45.059Z,10.85
2018-09-13T04:31:13.183Z,10.81
2018-09-13T04:33:41.786Z,10.80
2018-09-13T04:36:10.071Z,10.79
2018-09-13T04:38:38.066Z,10.74
2018-09-13T04:41:06.644Z,10.73
2018-09-13T04:43:34.759Z,10.43
2018-09-13T04:46:02.886Z,10.39
2018-09-13T04:48:32.259Z,10.25
2018-09-13T04:51:00.363Z,10.34
2018-09-13T04:53:28.463Z,10.40
2018-09-13T04:55:56.586Z,10.46
2018-09-13T04:58:24.835Z,10.41
2018-09-13T05:00:53.252Z,10.36
2018-09-13T05:03:21.371Z,10.42
2018-09-13T05:05:49.501Z,10.33
2018-09-13T05:08:17.619Z,10.23
2018-09-13T05:10:45.704Z,10.36
2018-09-13T05:13:13.825Z,10.41
2018-09-13T05:15:41.961Z,10.42
2018-09-13T05:18:10.061Z,10.30
2018-09-13T05:20:38.200Z,10.34
2018-09-13T05:23:06.515Z,10.27
2018-09-13T05:25:34.653Z,10.20
2018-09-13T05:28:02.780Z,10.16
2018-09-13T05:30:30.986Z,10.16
2018-09-13T05:32:59.080Z,10.27
2018-09-13T05:35:27.203Z,10.26
2018-09-13T05:37:55.310Z,10.25
2018-09-13T05:40:23.420Z,10.37
2018-09-13T05:42:51.513Z,10.50
2018-09-13T05:45:19.605Z,10.52
2018-09-13T05:47:47.714Z,10.53
2018-09-13T05:50:15.817Z,10.65
2018-09-13T05:52:43.919Z,10.83
2018-09-13T05:55:12.043Z,10.86
2018-09-13T05:57:40.159Z,10.84
2018-09-13T06:00:08.267Z,10.89
2018-09-13T06:02:36.351Z,10.93
2018-09-13T06:05:04.477Z,10.95
2018-09-13T06:07:32.602Z,11.01
2018-09-13T06:10:00.719Z,10.99
2018-09-13T06:12:28.811Z,11.04
2018-09-13T06:14:56.976Z,11.22
2018-09-13T06:17:25.094Z,11.33
2018-09-13T06:19:54.055Z,11.52
2018-09-13T06:22:22.153Z,11.55
2018-09-13T06:24:50.246Z,11.83
2018-09-13T06:27:18.328Z,11.97
2018-09-13T06:29:47.147Z,12.06
2018-09-13T06:32:15.293Z,12.25
2018-09-13T06:34:43.422Z,12.36
2018-09-13T06:37:11.524Z,12.52
2018-09-13T06:39:39.579Z,12.65
2018-09-13T06:42:07.687Z,12.77
2018-09-13T06:44:35.795Z,12.90
2018-09-13T06:47:03.936Z,13.02
2018-09-13T06:49:32.020Z,13.22
2018-09-13T06:52:00.088Z,13.43
2018-09-13T06:54:28.182Z,13.58
2018-09-13T06:56:56.305Z,13.72
2018-09-13T06:59:24.411Z,13.78
2018-09-13T07:01:52.551Z,13.98
2018-09-13T07:04:20.752Z,14.08
2018-09-13T07:06:48.859Z,14.21
2018-09-13T07:09:16.949Z,14.36
2018-09-13T07:11:45.722Z,14.45
2018-09-13T07:14:13.853Z,14.62
2018-09-13T07:16:42.036Z,14.75
2018-09-13T07:19:10.216Z,14.78
2018-09-13T07:21:38.335Z,14.81
2018-09-13T07:24:06.463Z,14.92
2018-09-13T07:26:34.623Z,14.86
2018-09-13T07:29:02.710Z,14.89
2018-09-13T07:31:30.788Z,14.96
2018-09-13T07:33:58.890Z,15.15
2018-09-13T07:36:27.024Z,15.17
2018-09-13T07:38:55.107Z,15.27
2018-09-13T07:41:23.194Z,15.33
2018-09-13T07:43:51.268Z,15.36
2018-09-13T07:46:19.327Z,15.33
2018-09-13T07:48:47.392Z,15.34
2018-09-13T07:51:15.491Z,15.43
2018-09-13T07:53:43.564Z,15.49
2018-09-13T07:56:11.620Z,15.59
2018-09-13T07:58:39.702Z,15.60
2018-09-13T08:01:07.845Z,15.63
2018-09-13T08:03:35.907Z,15.68
2018-09-13T08:06:04.010Z,15.91
2018-09-13T08:08:32.127Z,15.95
2018-09-13T08:11:00.180Z,16.00
2018-09-13T08:13:28.227Z,15.96
2018-09-13T08:15:56.372Z,16.00
2018-09-13T08:18:25.204Z,16.16
2018-09-13T08:20:53.300Z,15.99
2018-09-13T08:23:21.382Z,16.05
2018-09-13T08:25:49.419Z,16.12
2018-09-13T08:28:17.486Z,16.36
2018-09-13T08:30:45.567Z,16.48
2018-09-13T08:33:13.707Z,16.46
2018-09-13T08:35:41.781Z,16.27
2018-09-13T08:38:09.873Z,16.20
2018-09-13T08:40:37.964Z,16.22
2018-09-13T08:43:06.130Z,16.21
2018-09-13T08:45:34.295Z,16.13
2018-09-13T08:48:02.387Z,15.98
2018-09-13T08:50:30.466Z,15.83
2018-09-13T08:52:58.532Z,15.65
2018-09-13T08:55:26.627Z,15.51
2018-09-13T08:57:54.742Z,15.62
2018-09-13T09:00:22.794Z,15.94
2018-09-13T09:02:50.924Z,15.94
2018-09-13T09:05:19.011Z,16.22
2018-09-13T09:07:47.094Z,16.31
2018-09-13T09:10:15.187Z,16.34
2018-09-13T09:12:43.309Z,16.22
2018-09-13T09:15:11.400Z,16.37
2018-09-13T09:17:39.496Z,16.49
2018-09-13T09:20:07.568Z,16.42
2018-09-13T09:22:35.616Z,16.32
2018-09-13T09:25:03.710Z,16.63
2018-09-13T09:27:31.894Z,16.95
2018-09-13T09:29:59.897Z,17.06
2018-09-13T09:32:28.011Z,16.73
2018-09-13T09:34:56.139Z,16.94
2018-09-13T09:37:24.226Z,16.77
2018-09-13T09:39:52.333Z,17.13
2018-09-13T09:42:20.366Z,17.27
2018-09-13T09:44:48.466Z,17.27
2018-09-13T09:47:16.575Z,17.59
2018-09-13T09:49:44.692Z,18.07
2018-09-13T09:52:12.766Z,18.27
2018-09-13T09:54:40.854Z,18.37
2018-09-13T09:57:08.931Z,18.49
2018-09-13T09:59:37.041Z,18.54
2018-09-13T10:02:10.388Z,18.71
2018-09-13T10:04:38.553Z,18.45
2018-09-13T10:07:06.588Z,18.62
2018-09-13T10:09:34.782Z,18.48
2018-09-13T10:12:02.843Z,18.27
2018-09-13T10:14:30.926Z,18.20
2018-09-13T10:17:04.374Z,18.29
2018-09-13T10:19:37.992Z,18.08
2018-09-13T10:22:11.368Z,18.13
2018-09-13T10:24:44.969Z,18.39
2018-09-13T10:27:18.474Z,18.62
2018-09-13T10:29:51.870Z,18.71
2018-09-13T10:33:25.231Z,18.61
2018-09-13T10:35:58.760Z,18.02
2018-09-13T10:38:32.162Z,18.10
2018-09-13T10:41:05.541Z,18.22
2018-09-13T10:43:38.828Z,18.45
2018-09-13T10:46:12.211Z,18.57
2018-09-13T10:48:44.491Z,18.56
2018-09-13T10:51:19.656Z,18.53
2018-09-13T10:53:51.968Z,18.54
2018-09-13T10:56:20.050Z,18.32
2018-09-13T10:58:48.195Z,18.07
2018-09-13T11:01:16.309Z,17.84
2018-09-13T11:03:44.361Z,17.92
2018-09-13T11:06:12.463Z,17.93
2018-09-13T11:08:40.558Z,17.76
2018-09-13T11:11:08.716Z,17.71
2018-09-13T11:13:47.376Z,17.72
2018-09-13T11:16:15.475Z,17.61
2018-09-13T11:18:43.558Z,17.58
2018-09-13T11:21:11.635Z,17.58
2018-09-13T11:23:40.685Z,17.59
2018-09-13T11:26:08.763Z,17.55
2018-09-13T11:28:36.852Z,17.68
2018-09-13T11:31:05.830Z,17.62
2018-09-13T11:33:34.889Z,17.57
2018-09-13T11:36:02.952Z,17.60
2018-09-13T11:38:31.108Z,17.52
2018-09-13T11:40:59.335Z,17.46
2018-09-13T11:43:28.015Z,17.39
2018-09-13T11:45:56.223Z,17.35
2018-09-13T11:48:24.305Z,17.22
2018-09-13T11:50:52.419Z,17.31
2018-09-13T11:53:20.548Z,17.54
2018-09-13T11:55:48.651Z,17.76
2018-09-13T11:58:17.072Z,17.94
2018-09-13T12:00:45.162Z,18.08
2018-09-13T12:03:14.138Z,18.34
2018-09-13T12:05:42.296Z,18.51
2018-09-13T12:08:10.389Z,18.47
2018-09-13T12:10:38.444Z,18.61
2018-09-13T12:13:06.631Z,18.90
2018-09-13T12:15:34.720Z,18.21
2018-09-13T12:18:02.874Z,18.38
2018-09-13T12:20:30.913Z,18.66
2018-09-13T12:22:58.963Z,18.67
2018-09-13T12:25:27.034Z,18.88
2018-09-13T12:27:55.223Z,19.04
2018-09-13T12:30:23.324Z,19.10
2018-09-13T12:32:51.430Z,19.11
2018-09-13T12:35:19.570Z,19.07
2018-09-13T12:37:47.653Z,19.13
2018-09-13T12:40:15.727Z,19.17
2018-09-13T12:42:43.831Z,18.94
2018-09-13T12:45:11.994Z,18.90
2018-09-13T12:47:40.101Z,18.73
2018-09-13T12:50:08.183Z,18.72
2018-09-13T12:52:36.309Z,18.74
2018-09-13T12:55:04.492Z,18.68
2018-09-13T12:57:32.625Z,18.56
2018-09-13T13:00:00.751Z,18.46
2018-09-13T13:02:28.829Z,18.42
2018-09-13T13:04:57.046Z,18.26
2018-09-13T13:07:25.163Z,18.30
2018-09-13T13:09:53.209Z,18.68
2018-09-13T13:12:21.319Z,18.63
2018-09-13T13:14:49.403Z,18.72
2018-09-13T13:17:17.515Z,18.94
2018-09-13T13:19:45.639Z,18.93
2018-09-13T13:22:13.734Z,19.16
2018-09-13T13:24:41.888Z,19.37
2018-09-13T13:27:10.075Z,19.55
2018-09-13T13:29:38.422Z,19.61
2018-09-13T13:32:06.642Z,19.36
2018-09-13T13:34:34.751Z,19.53
2018-09-13T13:37:02.907Z,19.51
2018-09-13T13:39:31.015Z,19.61
2018-09-13T13:41:59.130Z,19.61
2018-09-13T13:44:27.243Z,19.69
2018-09-13T13:46:55.371Z,19.71
2018-09-13T13:49:23.457Z,19.68
2018-09-13T13:51:51.578Z,19.71
2018-09-13T13:54:19.680Z,19.73
2018-09-13T13:56:47.812Z,19.63
2018-09-13T13:59:15.915Z,19.72
2018-09-13T14:01:44.000Z,19.75
2018-09-13T14:04:12.084Z,19.71
2018-09-13T14:06:40.265Z,19.77
2018-09-13T14:09:10.932Z,19.84
2018-09-13T14:11:39.020Z,19.70
2018-09-13T14:14:07.138Z,19.55
2018-09-13T14:16:35.284Z,19.73
2018-09-13T14:19:03.486Z,19.91
2018-09-13T14:21:31.696Z,19.85
2018-09-13T14:23:59.795Z,19.81
2018-09-13T14:26:27.953Z,19.54
2018-09-13T14:28:56.028Z,19.61
2018-09-13T14:31:24.155Z,19.40
2018-09-13T14:33:52.249Z,19.21
2018-09-13T14:36:20.379Z,19.24
2018-09-13T14:38:48.508Z,19.21
2018-09-13T14:41:16.650Z,18.76
2018-09-13T14:43:44.800Z,18.89
2018-09-13T14:46:12.919Z,19.01
2018-09-13T14:48:40.986Z,19.03
2018-09-13T14:51:09.097Z,19.07
2018-09-13T14:53:37.209Z,19.03
2018-09-13T14:56:05.370Z,18.99
2018-09-13T14:58:33.489Z,19.01
2018-09-13T15:01:01.565Z,18.82
2018-09-13T15:03:29.651Z,18.93
2018-09-13T15:05:57.727Z,18.90
2018-09-13T15:08:25.816Z,18.84
2018-09-13T15:10:54.118Z,18.76
2018-09-13T15:13:22.280Z,18.77
2018-09-13T15:15:50.380Z,18.78
2018-09-13T15:18:18.475Z,18.73
2018-09-13T15:20:46.591Z,18.73
2018-09-13T15:23:14.693Z,18.74
2018-09-13T15:25:42.796Z,18.72
2018-09-13T15:28:10.867Z,18.84
2018-09-13T15:30:39.925Z,18.98
2018-09-13T15:33:08.051Z,18.91
2018-09-13T15:35:36.187Z,18.98
2018-09-13T15:38:04.300Z,18.98
2018-09-13T15:40:32.392Z,19.06
2018-09-13T15:43:00.592Z,19.13
2018-09-13T15:45:28.633Z,18.97
2018-09-13T15:47:56.708Z,18.92
2018-09-13T15:50:24.807Z,18.92
2018-09-13T15:52:52.948Z,18.95
2018-09-13T15:55:21.064Z,18.94
2018-09-13T15:57:49.156Z,18.85
2018-09-13T16:00:17.268Z,18.62
2018-09-13T16:02:45.383Z,18.53
2018-09-13T16:05:13.905Z,18.56
2018-09-13T16:07:41.999Z,18.48
2018-09-13T16:10:10.109Z,18.42
2018-09-13T16:12:38.366Z,18.49
2018-09-13T16:15:06.356Z,18.48
2018-09-13T16:17:34.443Z,18.63
2018-09-13T16:21:05.567Z,18.56
2018-09-13T16:23:33.691Z,18.57
2018-09-13T16:26:01.852Z,18.53
2018-09-13T16:28:29.909Z,18.54
2018-09-13T16:30:58.010Z,18.43
2018-09-13T16:33:26.167Z,18.32
2018-09-13T16:35:55.127Z,18.33
2018-09-13T16:38:30.576Z,18.20
2018-09-13T16:42:03.464Z,18.23
2018-09-13T16:44:37.070Z,18.16
2018-09-13T16:47:10.684Z,18.17
2018-09-13T16:49:40.128Z,18.15
2018-09-13T16:52:08.388Z,17.94
2018-09-13T16:54:36.531Z,17.89
2018-09-13T16:57:04.751Z,17.83
2018-09-13T16:59:33.092Z,17.84
2018-09-13T17:02:01.307Z,17.80
2018-09-13T17:04:29.406Z,17.65
2018-09-13T17:06:57.660Z,17.74
2018-09-13T17:09:25.799Z,17.65
2018-09-13T17:11:54.067Z,17.57
2018-09-13T17:14:22.667Z,17.54
2018-09-13T17:16:50.851Z,17.47
2018-09-13T17:19:18.969Z,17.37
2018-09-13T17:21:47.104Z,17.31
2018-09-13T17:24:15.244Z,17.22
2018-09-13T17:26:43.392Z,17.12
2018-09-13T17:29:11.505Z,17.04
2018-09-13T17:31:39.611Z,16.99
2018-09-13T17:34:07.754Z,16.97
2018-09-13T17:36:35.756Z,16.84
2018-09-13T17:39:04.228Z,16.69
2018-09-13T17:41:32.301Z,16.59
2018-09-13T17:44:00.360Z,16.41
2018-09-13T17:46:28.488Z,16.34
2018-09-13T17:48:56.542Z,16.19
2018-09-13T17:51:24.643Z,16.13
2018-09-13T17:53:53.312Z,15.95
2018-09-13T17:56:21.453Z,15.87
2018-09-13T17:58:49.557Z,15.84
2018-09-13T18:01:17.667Z,15.72
2018-09-13T18:03:45.884Z,15.67
2018-09-13T18:06:13.903Z,15.74
2018-09-13T18:08:42.012Z,15.81
2018-09-13T18:11:10.272Z,15.71
2018-09-13T18:13:38.381Z,15.66
2018-09-13T18:16:06.487Z,15.60
2018-09-13T18:18:34.592Z,15.51
2018-09-13T18:21:02.707Z,15.43
2018-09-13T18:23:30.837Z,15.30
2018-09-13T18:25:58.968Z,15.18
2018-09-13T18:28:27.055Z,15.11
2018-09-13T18:30:55.151Z,15.00
2018-09-13T18:33:23.264Z,14.86
2018-09-13T18:35:51.391Z,14.69
2018-09-13T18:38:19.519Z,14.58
2018-09-13T18:40:47.632Z,14.50
2018-09-13T18:43:15.743Z,14.52
2018-09-13T18:45:44.158Z,14.49
2018-09-13T18:48:12.274Z,14.52
2018-09-13T18:50:40.406Z,14.44
2018-09-13T18:53:08.519Z,14.47
2018-09-13T18:55:36.634Z,14.55
2018-09-13T18:58:04.805Z,14.60
2018-09-13T19:00:32.885Z,14.50
2018-09-13T19:03:01.002Z,14.42
2018-09-13T19:05:29.462Z,14.44
2018-09-13T19:07:57.555Z,14.44
2018-09-13T19:10:25.642Z,14.47
2018-09-13T19:12:53.759Z,14.49
2018-09-13T19:15:21.919Z,14.55
2018-09-13T19:17:50.075Z,14.58
2018-09-13T19:20:18.214Z,14.57
2018-09-13T19:22:46.300Z,14.60
2018-09-13T19:25:14.427Z,14.53
2018-09-13T19:27:42.531Z,14.59
2018-09-13T19:30:10.646Z,14.60
2018-09-13T19:32:38.767Z,14.64
2018-09-13T19:35:06.992Z,14.51
2018-09-13T19:37:35.095Z,14.42
2018-09-13T19:40:03.228Z,14.32
2018-09-13T19:42:31.351Z,14.32
2018-09-13T19:44:59.472Z,14.35
2018-09-13T19:47:27.621Z,14.28
2018-09-13T19:49:55.710Z,14.24
2018-09-13T19:52:23.860Z,14.03
2018-09-13T19:54:51.939Z,13.93
2018-09-13T19:57:20.017Z,13.76
2018-09-13T19:59:48.149Z,13.70
2018-09-13T20:02:16.243Z,13.60
2018-09-13T20:04:44.382Z,13.48
2018-09-13T20:07:12.467Z,13.46
2018-09-13T20:09:40.567Z,13.36
2018-09-13T20:12:08.673Z,13.25
2018-09-13T20:14:36.763Z,13.22
2018-09-13T20:17:04.842Z,13.19
2018-09-13T20:19:32.972Z,13.14
2018-09-13T20:22:01.063Z,13.12
2018-09-13T20:24:29.198Z,13.04
2018-09-13T20:26:57.326Z,12.94
2018-09-13T20:29:25.419Z,12.88
2018-09-13T20:31:53.511Z,12.80
2018-09-13T20:34:21.653Z,12.81
2018-09-13T20:36:49.723Z,12.73
2018-09-13T20:39:17.822Z,12.67
2018-09-13T20:41:45.943Z,12.48
2018-09-13T20:44:14.064Z,12.47
2018-09-13T20:46:42.163Z,12.40
2018-09-13T20:49:10.328Z,12.38
2018-09-13T20:51:38.427Z,12.31
2018-09-13T20:54:06.784Z,12.25
2018-09-13T20:56:34.967Z,12.18
2018-09-13T20:59:03.051Z,12.07
2018-09-13T21:01:31.151Z,11.97
2018-09-13T21:03:59.255Z,11.94
2018-09-13T21:06:27.373Z,11.83
2018-09-13T21:08:55.479Z,11.75
2018-09-13T21:11:23.603Z,11.78
2018-09-13T21:13:51.747Z,11.72
2018-09-13T21:16:19.864Z,11.71
2018-09-13T21:18:47.975Z,11.74
2018-09-13T21:21:16.095Z,11.81
2018-09-13T21:23:44.155Z,11.82
2018-09-13T21:26:12.242Z,11.81
2018-09-13T21:28:40.376Z,11.71
2018-09-13T21:31:08.462Z,11.67
2018-09-13T21:33:36.618Z,11.61
2018-09-13T21:36:04.838Z,11.53
2018-09-13T21:38:32.968Z,11.45
2018-09-13T21:41:01.213Z,11.46
2018-09-13T21:43:29.334Z,11.47
2018-09-13T21:45:57.471Z,11.51
2018-09-13T21:48:25.582Z,11.39
2018-09-13T21:50:53.688Z,11.35
2018-09-13T21:53:21.812Z,11.35
2018-09-13T21:55:49.914Z,11.29
2018-09-13T21:58:18.020Z,11.25
2018-09-13T22:00:46.094Z,11.24
2018-09-13T22:03:14.199Z,11.25
2018-09-13T22:05:42.269Z,11.24
2018-09-13T22:08:10.387Z,11.19
2018-09-13T22:10:38.466Z,11.16
2018-09-13T22:13:06.562Z,11.14
2018-09-13T22:15:34.683Z,11.21
2018-09-13T22:18:02.782Z,11.23
2018-09-13T22:20:30.859Z,11.05
2018-09-13T22:22:58.978Z,10.94
2018-09-13T22:25:27.104Z,10.94
2018-09-13T22:27:55.250Z,10.88
2018-09-13T22:30:23.352Z,10.82
2018-09-13T22:32:51.446Z,10.80
2018-09-13T22:35:19.567Z,10.78
2018-09-13T22:37:47.675Z,10.74
2018-09-13T22:40:15.784Z,10.78
2018-09-13T22:42:43.848Z,10.79
2018-09-13T22:45:11.920Z,10.80
2018-09-13T22:47:40.048Z,10.77
2018-09-13T22:50:08.177Z,10.70
2018-09-13T22:52:36.287Z,10.64
2018-09-13T22:55:04.408Z,10.63
2018-09-13T22:57:32.531Z,10.61
2018-09-13T23:00:00.652Z,10.61
2018-09-13T23:02:28.743Z,10.73
2018-09-13T23:04:56.849Z,10.61
2018-09-13T23:07:24.971Z,10.64
2018-09-13T23:09:53.082Z,10.61
2018-09-13T23:12:21.184Z,10.66
2018-09-13T23:14:49.287Z,10.59
2018-09-13T23:17:17.365Z,10.52
2018-09-13T23:19:45.519Z,10.55
2018-09-13T23:22:13.611Z,10.55
2018-09-13T23:24:41.711Z,10.52
2018-09-13T23:27:10.127Z,10.50
2018-09-13T23:29:38.527Z,10.46
2018-09-13T23:32:06.655Z,10.48
2018-09-13T23:34:34.734Z,10.50
2018-09-13T23:37:02.867Z,10.45
2018-09-13T23:39:31.248Z,10.45
2018-09-13T23:41:59.049Z,10.35
2018-09-13T23:44:27.134Z,10.26
2018-09-13T23:46:55.301Z,10.22
2018-09-13T23:49:23.378Z,10.23
2018-09-13T23:51:51.488Z,10.28
2018-09-13T23:54:19.583Z,10.29
2018-09-13T23:56:47.695Z,10.33
2018-09-13T23:59:16.107Z,10.38
